Time;durP1;ratioP1;P1;durP2;ratioP2;P2;SDS_P1;SDS_P2;PMS_P1;PMS_P2;Temp;Humidity;BMP_temperature;BMP_pressure;BME280_temperature;BME280_humidity;BME280_pressure;Samples;Min_cycle;Max_cycle;Signal;HPM_P1;HPM_P2
2021/04/10 00:02:08;;;;;;;5.25;3.55;;;12.90;86.00;;;;;;4974665;28;20138;-63
2021/04/10 00:04:33;;;;;;;5.15;2.55;;;12.80;86.20;;;;;;4991885;28;20432;-63
2021/04/10 00:06:59;;;;;;;7.82;3.83;;;12.80;85.80;;;;;;4974334;28;20039;-63
2021/04/10 00:09:25;;;;;;;7.07;3.13;;;12.80;86.00;;;;;;4973815;28;20027;-63
2021/04/10 00:11:51;;;;;;;7.45;3.35;;;12.80;86.60;;;;;;4974398;28;20057;-64
2021/04/10 00:14:16;;;;;;;11.80;4.35;;;12.80;86.50;;;;;;4991538;28;20036;-64
2021/04/10 00:16:42;;;;;;;6.55;2.97;;;12.70;86.00;;;;;;4991657;28;20109;-63
2021/04/10 00:19:08;;;;;;;11.18;3.30;;;12.80;86.40;;;;;;4974451;28;20122;-63
2021/04/10 00:21:34;;;;;;;10.77;4.05;;;12.80;85.80;;;;;;4973930;28;20112;-64
2021/04/10 00:23:59;;;;;;;4.78;2.42;;;12.80;86.60;;;;;;4974298;28;20474;-63
2021/04/10 00:26:25;;;;;;;13.73;3.00;;;12.80;87.10;;;;;;4990825;28;20041;-63
2021/04/10 00:28:51;;;;;;;4.68;3.00;;;12.80;87.70;;;;;;4991919;28;20033;-63
2021/04/10 00:31:17;;;;;;;6.22;3.13;;;12.80;87.40;;;;;;4991404;28;20084;-64
2021/04/10 00:33:43;;;;;;;6.47;2.80;;;12.80;88.40;;;;;;4991683;28;20128;-62
2021/04/10 00:36:10;;;;;;;9.55;3.30;;;12.80;89.50;;;;;;4974106;28;20039;-62
2021/04/10 00:38:38;;;;;;;11.18;3.92;;;12.80;91.40;;;;;;4973586;28;20467;-63
2021/04/10 00:41:08;;;;;;;6.32;3.38;;;12.70;91.60;;;;;;4991354;28;20089;-63
2021/04/10 00:43:34;;;;;;;4.95;3.05;;;12.80;91.90;;;;;;4972918;28;20117;-63
2021/04/10 00:46:00;;;;;;;7.22;3.40;;;12.80;93.30;;;;;;4974075;28;20022;-63
2021/04/10 00:48:26;;;;;;;6.32;3.08;;;12.80;94.40;;;;;;4990604;28;20420;-63
2021/04/10 00:50:53;;;;;;;7.90;3.42;;;12.70;95.10;;;;;;4973907;28;20034;-63
2021/04/10 00:53:22;;;;;;;14.07;4.30;;;12.70;96.00;;;;;;4990540;28;20433;-63
2021/04/10 00:55:48;;;;;;;10.90;3.97;;;12.70;96.80;;;;;;4991303;28;20113;-63
2021/04/10 00:58:14;;;;;;;11.02;4.00;;;12.70;97.40;;;;;;4973049;28;20048;-64
2021/04/10 01:00:41;;;;;;;6.63;4.03;;;12.60;98.70;;;;;;4991171;28;20022;-63
2021/04/10 01:03:07;;;;;;;7.07;3.92;;;12.60;99.30;;;;;;4991240;28;20034;-63
2021/04/10 01:05:33;;;;;;;7.65;3.90;;;12.60;99.90;;;;;;4957034;28;20586;-63
2021/04/10 01:07:59;;;;;;;7.50;3.70;;;12.60;99.90;;;;;;4973561;28;20472;-63
2021/04/10 01:10:26;;;;;;;9.43;3.70;;;12.60;99.90;;;;;;4973137;28;20022;-64
2021/04/10 01:13:42;;;;;;;9.65;3.72;;;12.60;99.90;;;;;;4991250;28;20030;-64
2021/04/10 01:16:22;;;;;;;4.72;3.53;;;12.70;99.10;;;;;;4951886;28;20125;-62
2021/04/10 01:19:13;;;;;;;24.23;3.85;;;12.60;99.10;;;;;;4973020;28;20022;-63
2021/04/10 01:21:42;;;;;;;6.65;3.72;;;12.50;99.50;;;;;;4991210;28;20041;-63
2021/04/10 01:24:26;;;;;;;7.38;3.45;;;12.40;99.70;;;;;;4973375;28;20034;-62
2021/04/10 01:27:07;;;;;;;6.90;4.45;;;12.30;99.90;;;;;;4990954;28;20030;-63
2021/04/10 01:29:40;;;;;;;7.68;4.53;;;12.30;99.90;;;;;;4989584;28;20038;-62
2021/04/10 01:32:06;;;;;;;7.97;4.32;;;12.20;99.90;;;;;;4973427;28;20432;-63
2021/04/10 01:34:38;;;;;;;8.27;4.57;;;12.10;99.90;;;;;;4990335;28;20042;-62
2021/04/10 01:37:13;;;;;;;9.85;4.65;;;12.00;99.90;;;;;;4973570;28;20058;-63
2021/04/10 01:39:39;;;;;;;13.35;4.00;;;11.80;99.90;;;;;;4990259;28;20117;-62
2021/04/10 01:42:07;;;;;;;6.78;3.40;;;11.70;99.90;;;;;;4972794;28;20145;-62
2021/04/10 01:44:33;;;;;;;7.32;3.78;;;11.60;99.90;;;;;;4989818;28;20121;-63
2021/04/10 01:47:01;;;;;;;8.25;4.32;;;11.70;99.90;;;;;;4990496;28;20487;-62
2021/04/10 01:49:29;;;;;;;8.95;4.53;;;11.70;99.90;;;;;;4972748;28;20030;-62
2021/04/10 01:51:56;;;;;;;6.20;4.10;;;11.70;99.90;;;;;;4991020;28;20062;-64
2021/04/10 01:54:22;;;;;;;8.30;4.70;;;11.70;99.90;;;;;;4972391;28;20537;-62
2021/04/10 01:56:49;;;;;;;7.30;4.13;;;11.60;99.90;;;;;;4990842;28;20181;-63
2021/04/10 01:59:16;;;;;;;8.52;4.45;;;11.70;99.90;;;;;;4990685;28;20030;-62
2021/04/10 02:01:44;;;;;;;6.70;4.65;;;11.70;99.90;;;;;;4972528;28;20057;-62
2021/04/10 02:04:12;;;;;;;11.00;5.70;;;11.60;99.90;;;;;;4990251;28;20034;-62
2021/04/10 02:06:40;;;;;;;19.15;5.10;;;11.60;99.90;;;;;;4989848;28;20057;-63
2021/04/10 02:09:09;;;;;;;6.47;4.10;;;11.60;99.90;;;;;;4972578;28;20081;-62
2021/04/10 02:11:36;;;;;;;9.75;4.68;;;11.60;99.90;;;;;;4989542;28;20026;-63
2021/04/10 02:14:06;;;;;;;9.25;4.95;;;11.40;99.90;;;;;;4972989;28;20037;-62
2021/04/10 02:16:32;;;;;;;8.43;4.82;;;11.40;99.90;;;;;;4972245;28;20022;-63
2021/04/10 02:19:01;;;;;;;8.60;4.65;;;11.50;99.90;;;;;;4990580;28;20432;-63
2021/04/10 02:21:27;;;;;;;7.90;4.82;;;11.50;99.90;;;;;;4989678;28;20162;-62
2021/04/10 02:23:54;;;;;;;10.77;5.00;;;11.50;99.90;;;;;;4972688;28;20122;-63
2021/04/10 02:26:22;;;;;;;11.57;5.20;;;11.40;99.90;;;;;;4971989;28;20129;-62
2021/04/10 02:28:48;;;;;;;6.40;4.97;;;11.50;99.90;;;;;;4990151;28;20646;-62
2021/04/10 02:31:27;;;;;;;8.68;5.40;;;11.40;99.90;;;;;;4990124;28;20061;-62
2021/04/10 02:33:55;;;;;;;8.68;4.70;;;11.20;99.90;;;;;;4972654;28;20033;-62
2021/04/10 02:36:23;;;;;;;11.30;6.30;;;11.20;99.90;;;;;;4989605;28;20046;-63
2021/04/10 02:38:50;;;;;;;10.90;5.53;;;11.20;99.90;;;;;;4989940;28;20412;-63
2021/04/10 02:41:27;;;;;;;12.20;6.05;;;11.20;99.90;;;;;;4974739;28;20026;-62
2021/04/10 02:44:06;;;;;;;7.57;5.78;;;11.20;99.90;;;;;;4993620;28;20049;-62
2021/04/10 02:46:36;;;;;;;11.23;6.50;;;11.10;99.90;;;;;;4975456;28;20034;-64
2021/04/10 02:49:05;;;;;;;11.10;6.75;;;11.10;99.90;;;;;;4993624;28;20042;-63
2021/04/10 02:51:40;;;;;;;12.52;6.95;;;11.10;99.90;;;;;;4975159;28;20476;-62
2021/04/10 02:54:07;;;;;;;12.07;7.22;;;11.00;99.90;;;;;;4975998;28;20115;-62
2021/04/10 02:56:38;;;;;;;12.63;7.85;;;10.90;99.90;;;;;;4992642;28;20027;-62
2021/04/10 02:59:06;;;;;;;13.35;7.35;;;10.90;99.90;;;;;;4993376;28;20058;-63
2021/04/10 03:01:33;;;;;;;13.25;7.63;;;10.90;99.90;;;;;;4974914;28;20034;-63
2021/04/10 03:04:01;;;;;;;12.75;7.50;;;10.90;99.90;;;;;;4993175;28;20116;-63
2021/04/10 03:06:29;;;;;;;16.02;7.60;;;10.90;99.90;;;;;;4992858;28;20117;-64
2021/04/10 03:09:02;;;;;;;12.50;8.30;;;10.90;99.90;;;;;;4975762;28;20104;-63
2021/04/10 03:11:29;;;;;;;10.52;6.88;;;10.80;99.90;;;;;;4992361;28;20476;-63
2021/04/10 03:13:54;;;;;;;15.55;7.95;;;10.70;99.90;;;;;;4993346;28;20034;-63
2021/04/10 03:16:22;;;;;;;12.50;8.23;;;10.60;99.90;;;;;;4992829;28;20038;-63
2021/04/10 03:18:50;;;;;;;11.63;8.38;;;10.70;99.90;;;;;;4975546;28;20101;-63
2021/04/10 03:21:16;;;;;;;10.65;8.20;;;10.60;99.90;;;;;;4975408;28;20030;-63
2021/04/10 03:23:42;;;;;;;12.45;8.02;;;10.70;99.90;;;;;;4992395;28;20113;-63
2021/04/10 03:26:08;;;;;;;14.10;8.25;;;10.60;99.90;;;;;;4992737;28;20104;-63
2021/04/10 03:28:35;;;;;;;12.90;8.65;;;10.70;99.90;;;;;;4992315;28;20027;-63
2021/04/10 03:31:04;;;;;;;13.35;8.95;;;10.50;99.90;;;;;;4975344;28;20468;-63
2021/04/10 03:33:32;;;;;;;13.57;7.95;;;10.50;99.90;;;;;;4992300;28;20037;-63
2021/04/10 03:35:59;;;;;;;10.68;8.30;;;10.60;99.90;;;;;;4975209;28;20030;-63
2021/04/10 03:38:25;;;;;;;13.18;8.55;;;10.50;99.90;;;;;;4992372;28;20041;-64
2021/04/10 03:40:51;;;;;;;14.23;8.20;;;10.50;99.90;;;;;;4992852;28;20031;-61
2021/04/10 03:43:17;;;;;;;14.07;8.00;;;10.60;99.90;;;;;;4992760;28;20531;-61
2021/04/10 03:45:42;;;;;;;12.00;8.52;;;10.50;99.90;;;;;;4992470;28;20388;-62
2021/04/10 03:48:11;;;;;;;9.65;8.10;;;10.50;99.90;;;;;;4992942;28;20049;-63
2021/04/10 03:50:36;;;;;;;13.68;9.52;;;10.50;99.90;;;;;;4974457;28;20030;-62
2021/04/10 03:53:02;;;;;;;14.05;7.88;;;10.40;99.90;;;;;;4991635;28;20078;-63
2021/04/10 03:55:31;;;;;;;10.23;7.85;;;10.40;99.90;;;;;;4991704;28;20152;-63
2021/04/10 03:57:59;;;;;;;11.15;8.75;;;10.40;99.90;;;;;;4991994;28;20032;-63
2021/04/10 04:00:25;;;;;;;14.95;8.25;;;10.40;99.90;;;;;;4991898;28;20038;-63
2021/04/10 04:02:51;;;;;;;13.07;8.82;;;10.30;99.90;;;;;;4974319;28;20034;-63
2021/04/10 04:05:16;;;;;;;10.23;7.82;;;10.40;99.90;;;;;;4992410;28;20030;-63
2021/04/10 04:07:42;;;;;;;14.38;8.77;;;10.40;99.90;;;;;;4991968;28;20045;-62
2021/04/10 04:10:08;;;;;;;10.60;8.32;;;10.50;99.90;;;;;;4992148;28;20042;-63
2021/04/10 04:12:34;;;;;;;13.70;9.68;;;10.40;99.90;;;;;;4992023;28;20186;-63
2021/04/10 04:14:59;;;;;;;14.32;9.45;;;10.30;99.90;;;;;;4974605;28;20130;-62
2021/04/10 04:17:25;;;;;;;16.20;9.93;;;10.30;99.90;;;;;;4991278;28;20022;-63
2021/04/10 04:19:51;;;;;;;10.93;9.15;;;10.30;99.90;;;;;;4991884;28;20062;-63
2021/04/10 04:22:16;;;;;;;12.57;9.32;;;10.40;99.90;;;;;;4974316;28;20419;-62
2021/04/10 04:24:42;;;;;;;15.95;11.30;;;10.30;99.90;;;;;;4990791;28;20084;-61
2021/04/10 04:27:08;;;;;;;13.07;10.13;;;10.30;99.90;;;;;;4974425;28;20498;-63
2021/04/10 04:29:34;;;;;;;16.10;10.95;;;10.30;99.90;;;;;;4973570;28;20029;-64
2021/04/10 04:31:59;;;;;;;14.50;9.90;;;10.30;99.90;;;;;;4991399;28;20064;-62
2021/04/10 04:34:25;;;;;;;13.50;9.43;;;10.30;99.90;;;;;;4991192;28;20034;-64
2021/04/10 04:36:51;;;;;;;12.70;10.15;;;10.30;99.90;;;;;;4991622;28;20117;-62
2021/04/10 04:39:16;;;;;;;13.68;10.23;;;10.40;99.90;;;;;;4973917;28;20197;-62
2021/04/10 04:41:42;;;;;;;15.55;10.65;;;10.50;99.90;;;;;;4990503;28;20050;-63
2021/04/10 04:44:08;;;;;;;14.38;10.88;;;10.40;99.90;;;;;;4957941;28;20041;-63
2021/04/10 04:46:34;;;;;;;16.95;12.40;;;10.30;99.90;;;;;;4973329;28;20022;-63
2021/04/10 04:48:59;;;;;;;21.33;11.13;;;10.40;99.90;;;;;;4991735;28;20027;-63
2021/04/10 04:51:26;;;;;;;15.90;11.38;;;10.20;99.90;;;;;;4973421;28;20066;-63
2021/04/10 04:53:52;;;;;;;16.80;13.10;;;10.30;99.90;;;;;;4973637;28;20113;-63
2021/04/10 04:56:17;;;;;;;15.32;12.35;;;10.30;99.90;;;;;;4991020;28;20156;-63
2021/04/10 04:58:43;;;;;;;18.95;11.93;;;10.30;99.90;;;;;;4990641;28;20031;-63
2021/04/10 05:01:09;;;;;;;16.63;12.32;;;10.30;99.90;;;;;;4990908;28;20037;-63
2021/04/10 05:03:34;;;;;;;17.17;12.98;;;10.30;99.90;;;;;;4990234;28;20456;-62
2021/04/10 05:06:00;;;;;;;17.50;13.48;;;10.30;99.90;;;;;;4973648;28;20035;-62
2021/04/10 05:08:25;;;;;;;18.25;13.85;;;10.30;99.90;;;;;;4991240;28;20085;-62
2021/04/10 05:10:51;;;;;;;19.83;13.55;;;10.20;99.90;;;;;;4990739;28;20033;-63
2021/04/10 05:13:17;;;;;;;15.90;11.85;;;10.20;99.90;;;;;;4990752;28;20441;-63
2021/04/10 05:15:42;;;;;;;18.75;13.65;;;10.20;99.90;;;;;;4990741;28;20027;-63
2021/04/10 05:18:08;;;;;;;17.50;13.02;;;10.20;99.90;;;;;;4991123;28;20046;-63
2021/04/10 05:20:34;;;;;;;18.65;12.30;;;10.30;99.90;;;;;;4990274;28;20388;-63
2021/04/10 05:22:59;;;;;;;16.60;11.43;;;10.20;99.90;;;;;;4973474;28;20077;-63
2021/04/10 05:25:25;;;;;;;15.30;11.02;;;10.20;99.90;;;;;;4973292;28;20045;-63
2021/04/10 05:27:52;;;;;;;19.10;12.30;;;10.20;99.90;;;;;;4972738;28;20034;-61
2021/04/10 05:30:18;;;;;;;18.50;12.18;;;10.20;99.90;;;;;;4990613;28;20038;-62
2021/04/10 05:32:44;;;;;;;16.83;11.40;;;10.10;99.90;;;;;;4989833;28;20030;-62
2021/04/10 05:35:11;;;;;;;16.27;12.88;;;10.20;99.90;;;;;;4990673;28;20036;-62
2021/04/10 05:37:37;;;;;;;18.75;12.82;;;10.20;99.90;;;;;;4990364;28;20444;-62
2021/04/10 05:40:05;;;;;;;18.33;12.43;;;10.20;99.90;;;;;;4973388;28;20031;-63
2021/04/10 05:42:30;;;;;;;18.15;12.43;;;10.10;99.90;;;;;;4968826;28;20051;-64
2021/04/10 05:44:57;;;;;;;13.95;11.30;;;10.10;99.90;;;;;;4971141;28;20085;-62
2021/04/10 05:47:23;;;;;;;14.02;11.15;;;10.20;99.90;;;;;;4971144;28;20054;-63
2021/04/10 05:49:49;;;;;;;15.30;12.52;;;10.30;99.90;;;;;;4970595;28;20035;-63
2021/04/10 05:52:15;;;;;;;16.88;11.65;;;10.20;99.90;;;;;;4969719;28;20119;-62
2021/04/10 05:54:41;;;;;;;15.68;11.30;;;10.20;99.90;;;;;;4970860;28;20414;-63
2021/04/10 05:57:06;;;;;;;14.82;11.88;;;10.10;99.90;;;;;;4971121;28;20341;-62
2021/04/10 05:59:32;;;;;;;15.85;11.02;;;10.20;99.90;;;;;;4970133;28;20026;-63
2021/04/10 06:01:58;;;;;;;15.45;10.63;;;10.20;99.90;;;;;;4970708;28;20452;-63
2021/04/10 06:04:23;;;;;;;13.90;11.55;;;9.90;99.90;;;;;;4970965;28;20483;-63
2021/04/10 06:06:49;;;;;;;14.07;10.32;;;10.00;99.90;;;;;;4968875;28;20453;-63
2021/04/10 06:09:15;;;;;;;18.15;12.07;;;10.00;99.90;;;;;;4968296;28;20035;-63
2021/04/10 06:11:41;;;;;;;13.88;11.15;;;10.20;99.90;;;;;;4952260;28;20118;-63
2021/04/10 06:14:06;;;;;;;17.33;11.48;;;10.20;99.90;;;;;;4968448;28;20122;-63
2021/04/10 06:16:32;;;;;;;16.70;11.75;;;10.10;99.90;;;;;;4971046;28;20078;-63
2021/04/10 06:18:58;;;;;;;18.33;11.70;;;10.20;99.90;;;;;;4956038;28;20054;-63
2021/04/10 06:21:23;;;;;;;15.52;11.20;;;10.20;99.90;;;;;;4972465;28;20559;-62
2021/04/10 06:23:49;;;;;;;18.30;11.90;;;10.20;99.90;;;;;;4971513;28;20043;-63
2021/04/10 06:26:15;;;;;;;14.98;10.55;;;10.30;99.90;;;;;;4955850;28;20026;-63
2021/04/10 06:28:41;;;;;;;21.00;11.63;;;10.40;99.90;;;;;;4971427;28;20465;-63
2021/04/10 06:31:09;;;;;;;19.15;12.85;;;10.10;99.90;;;;;;4971792;28;20039;-62
2021/04/10 06:33:35;;;;;;;16.83;12.20;;;10.00;99.90;;;;;;4939185;28;20400;-63
2021/04/10 06:36:00;;;;;;;17.08;12.10;;;10.20;99.90;;;;;;4977996;28;20054;-62
2021/04/10 06:38:26;;;;;;;16.92;12.38;;;10.20;99.90;;;;;;4974894;28;20244;-63
2021/04/10 06:40:52;;;;;;;17.38;12.07;;;10.40;99.90;;;;;;4992312;28;20415;-63
2021/04/10 06:43:19;;;;;;;14.63;11.63;;;10.40;99.90;;;;;;4991938;28;20065;-63
2021/04/10 06:45:44;;;;;;;15.05;11.63;;;10.50;99.90;;;;;;4991531;28;20029;-63
2021/04/10 06:48:14;;;;;;;12.52;10.73;;;10.50;99.90;;;;;;4992331;28;20022;-63
2021/04/10 06:50:44;;;;;;;15.60;11.40;;;10.40;99.90;;;;;;4992905;28;20368;-63
2021/04/10 06:53:17;;;;;;;14.43;11.45;;;10.50;99.90;;;;;;4993365;28;20088;-64
2021/04/10 06:55:52;;;;;;;13.00;10.73;;;10.50;99.90;;;;;;4991270;28;20084;-70
2021/04/10 06:58:23;;;;;;;14.88;11.93;;;10.60;99.90;;;;;;4976307;28;20034;-62
2021/04/10 07:00:53;;;;;;;16.00;12.27;;;10.60;99.90;;;;;;4993039;28;20066;-63
2021/04/10 07:03:19;;;;;;;22.77;14.93;;;10.60;99.90;;;;;;4992904;28;20337;-63
2021/04/10 07:05:45;;;;;;;20.02;13.05;;;10.80;99.90;;;;;;4991048;28;20113;-63
2021/04/10 07:08:11;;;;;;;15.82;11.65;;;10.90;99.90;;;;;;4991725;28;20442;-63
2021/04/10 07:10:36;;;;;;;13.48;11.05;;;11.00;99.90;;;;;;4993101;28;20101;-64
2021/04/10 07:13:02;;;;;;;15.27;10.80;;;10.90;99.90;;;;;;4991882;28;20341;-63
2021/04/10 07:15:28;;;;;;;14.07;10.82;;;10.80;99.90;;;;;;4993301;28;20026;-63
2021/04/10 07:17:55;;;;;;;16.52;11.45;;;10.80;99.90;;;;;;4991302;28;20549;-63
2021/04/10 07:20:28;;;;;;;22.00;11.18;;;10.90;99.90;;;;;;4993075;28;20085;-63
2021/04/10 07:23:10;;;;;;;13.93;10.60;;;11.00;99.90;;;;;;4991407;28;20112;-62
2021/04/10 07:25:42;;;;;;;17.15;10.20;;;11.00;99.90;;;;;;4991229;28;20437;-63
2021/04/10 07:28:27;;;;;;;14.30;9.95;;;11.00;99.90;;;;;;4992043;28;20041;-63
2021/04/10 07:31:04;;;;;;;14.63;10.68;;;10.90;99.90;;;;;;4992364;28;20053;-63
2021/04/10 07:33:32;;;;;;;14.55;11.30;;;10.90;99.90;;;;;;4993144;28;20069;-63
2021/04/10 07:36:03;;;;;;;13.10;10.18;;;11.00;99.90;;;;;;4992304;28;20124;-62
2021/04/10 07:38:30;;;;;;;13.95;11.18;;;10.90;99.90;;;;;;4991292;28;20022;-63
2021/04/10 07:40:57;;;;;;;13.52;9.70;;;10.90;99.90;;;;;;4990858;28;20301;-63
2021/04/10 07:43:29;;;;;;;16.70;10.63;;;10.90;99.90;;;;;;5007369;28;20053;-63
2021/04/10 07:46:13;;;;;;;;;;;11.00;99.90;;;;;;5012504;28;20068;-63
2021/04/10 07:48:40;;;;;;;22.92;12.75;;;10.90;99.90;;;;;;5010624;28;20011;-64
2021/04/10 07:51:15;;;;;;;21.20;12.95;;;10.60;99.90;;;;;;5011201;28;20026;-63
2021/04/10 07:53:41;;;;;;;19.10;12.35;;;10.50;99.90;;;;;;5010044;28;20033;-63
2021/04/10 07:56:08;;;;;;;17.13;12.73;;;10.60;99.90;;;;;;5010656;28;20088;-63
2021/04/10 07:58:36;;;;;;;17.13;12.68;;;10.80;99.90;;;;;;5010457;28;20025;-62
2021/04/10 08:01:10;;;;;;;15.25;11.90;;;10.70;99.90;;;;;;5009976;28;20052;-62
2021/04/10 08:03:38;;;;;;;17.83;12.38;;;10.50;99.90;;;;;;5010692;28;20042;-64
2021/04/10 08:06:07;;;;;;;18.13;12.02;;;10.50;99.90;;;;;;5010557;28;20048;-63
2021/04/10 08:08:33;;;;;;;15.02;11.82;;;10.30;99.90;;;;;;5010408;28;20030;-62
2021/04/10 08:11:06;;;;;;;19.63;15.73;;;10.20;99.90;;;;;;5009636;28;20026;-64
2021/04/10 08:13:33;;;;;;;25.25;15.25;;;10.00;99.90;;;;;;5010861;28;20026;-62
2021/04/10 08:16:19;;;;;;;29.70;16.60;;;10.00;99.90;;;;;;5010232;28;20280;-62
2021/04/10 08:18:46;;;;;;;28.05;17.15;;;10.00;99.90;;;;;;5009577;28;20147;-62
2021/04/10 08:21:15;;;;;;;24.02;15.60;;;9.90;99.90;;;;;;5011390;28;20336;-64
2021/04/10 08:23:41;;;;;;;24.10;14.55;;;9.90;99.90;;;;;;5009814;28;20038;-63
2021/04/10 08:26:08;;;;;;;34.00;16.40;;;10.10;99.90;;;;;;5011890;28;20026;-64
2021/04/10 08:28:36;;;;;;;24.35;16.00;;;10.20;99.90;;;;;;5010582;28;20436;-65
2021/04/10 08:31:02;;;;;;;27.48;16.67;;;10.20;99.90;;;;;;5011295;28;20120;-64
2021/04/10 08:33:29;;;;;;;23.80;17.20;;;10.20;99.90;;;;;;5011799;28;20033;-63
2021/04/10 08:35:57;;;;;;;29.83;17.40;;;10.20;99.90;;;;;;5010706;28;20041;-64
2021/04/10 08:38:23;;;;;;;24.98;16.90;;;10.20;99.90;;;;;;5011085;28;20313;-63
2021/04/10 08:40:55;;;;;;;29.05;16.40;;;10.30;99.90;;;;;;5010786;28;20494;-63
2021/04/10 08:43:27;;;;;;;27.05;16.98;;;10.30;99.90;;;;;;5011564;28;20056;-63
2021/04/10 08:45:55;;;;;;;24.15;16.83;;;10.30;99.90;;;;;;5009132;28;20094;-63
2021/04/10 08:48:23;;;;;;;20.13;15.23;;;10.30;99.90;;;;;;5011315;28;20037;-64
2021/04/10 08:50:52;;;;;;;22.38;14.55;;;10.40;99.90;;;;;;5009403;28;20029;-63
2021/04/10 08:53:23;;;;;;;23.05;14.85;;;10.50;99.90;;;;;;5009667;28;20103;-64
2021/04/10 08:55:50;;;;;;;18.70;14.13;;;10.60;99.90;;;;;;5009530;28;20108;-64
2021/04/10 08:58:30;;;;;;;18.52;13.98;;;10.40;99.90;;;;;;5009570;28;20026;-63
2021/04/10 09:01:06;;;;;;;19.75;15.43;;;10.60;99.90;;;;;;5009244;28;20029;-62
2021/04/10 09:03:46;;;;;;;20.08;15.07;;;10.70;99.90;;;;;;5010811;28;20031;-64
2021/04/10 09:06:13;;;;;;;19.90;14.50;;;10.70;99.90;;;;;;5009657;28;20097;-62
2021/04/10 09:08:39;;;;;;;22.50;14.63;;;10.60;99.90;;;;;;5009676;28;20064;-63
2021/04/10 09:11:05;;;;;;;22.75;15.10;;;10.70;99.90;;;;;;5000270;28;20058;-65
2021/04/10 09:13:52;;;;;;;19.48;13.27;;;10.70;99.90;;;;;;4985518;28;20026;-63
2021/04/10 09:16:24;;;;;;;19.77;11.25;;;10.80;99.90;;;;;;4982210;28;20026;-63
2021/04/10 09:19:05;;;;;;;17.00;10.98;;;10.90;99.90;;;;;;4982285;28;20114;-63
2021/04/10 09:21:35;;;;;;;14.38;11.32;;;11.00;99.90;;;;;;4980351;28;20026;-63
2021/04/10 09:24:28;;;;;;;13.35;9.65;;;10.90;99.90;;;;;;4975695;28;20393;-63
2021/04/10 09:26:55;;;;;;;14.55;9.07;;;11.00;99.90;;;;;;4974028;28;20030;-63
2021/04/10 09:29:21;;;;;;;15.90;10.05;;;11.10;99.90;;;;;;4985330;28;20073;-63
2021/04/10 09:31:49;;;;;;;10.02;8.13;;;11.20;99.90;;;;;;4989757;28;20380;-63
2021/04/10 09:34:43;;;;;;;13.57;6.75;;;11.40;99.90;;;;;;4988966;28;20026;-63
2021/04/10 09:37:29;;;;;;;11.07;6.82;;;11.40;99.90;;;;;;4990224;28;20042;-62
2021/04/10 09:40:06;;;;;;;10.77;7.40;;;11.40;99.90;;;;;;4982677;28;20129;-64
2021/04/10 09:42:38;;;;;;;10.93;8.73;;;11.40;99.90;;;;;;4989012;28;20054;-63
2021/04/10 09:45:22;;;;;;;15.50;9.35;;;11.40;99.90;;;;;;4988071;28;20030;-63
2021/04/10 09:48:00;;;;;;;21.58;12.88;;;11.40;99.90;;;;;;4988877;28;20061;-63
2021/04/10 09:50:32;;;;;;;16.38;11.23;;;11.40;99.90;;;;;;4989780;28;20144;-63
2021/04/10 09:53:22;;;;;;;16.42;11.70;;;11.40;99.90;;;;;;4989498;28;20036;-61
2021/04/10 09:55:56;;;;;;;11.48;9.23;;;11.40;99.90;;;;;;4989904;28;20033;-63
2021/04/10 09:58:23;;;;;;;14.30;8.98;;;11.40;99.90;;;;;;4988627;28;20452;-63
2021/04/10 10:00:54;;;;;;;15.70;9.93;;;11.30;99.90;;;;;;4989888;28;20126;-64
2021/04/10 10:03:22;;;;;;;9.95;5.60;;;11.30;99.90;;;;;;5021707;28;20030;-62
2021/04/10 10:05:50;;;;;;;7.68;5.55;;;11.30;99.90;;;;;;4989642;28;20052;-63
2021/04/10 10:08:18;;;;;;;10.05;5.88;;;11.20;99.90;;;;;;4983631;28;20072;-63
2021/04/10 10:10:49;;;;;;;12.95;5.25;;;11.30;99.90;;;;;;4990238;28;20411;-63
2021/04/10 10:13:16;;;;;;;5.07;3.72;;;11.30;99.90;;;;;;4989655;28;20034;-64
2021/04/10 10:15:44;;;;;;;6.20;3.85;;;11.20;99.90;;;;;;4989313;28;20034;-63
2021/04/10 10:18:31;;;;;;;8.23;4.22;;;11.20;99.90;;;;;;4989910;28;20023;-63
2021/04/10 10:21:13;;;;;;;6.68;4.35;;;11.10;99.90;;;;;;4988188;28;20031;-63
2021/04/10 10:23:57;;;;;;;8.85;4.70;;;11.20;99.90;;;;;;4988383;28;20030;-63
2021/04/10 10:26:39;;;;;;;5.25;3.40;;;11.20;99.90;;;;;;4988651;28;20030;-62
2021/04/10 10:29:10;;;;;;;5.25;3.58;;;11.30;99.90;;;;;;4988363;28;20031;-63
2021/04/10 10:31:53;;;;;;;6.43;3.33;;;11.30;99.90;;;;;;4989334;28;20045;-63
2021/04/10 10:34:25;;;;;;;8.52;4.85;;;11.30;99.90;;;;;;4988624;28;20100;-63
2021/04/10 10:36:53;;;;;;;8.23;3.38;;;11.20;99.90;;;;;;4983066;28;20038;-64
2021/04/10 10:39:30;;;;;;;6.75;3.53;;;11.20;99.90;;;;;;4988785;28;20034;-63
2021/04/10 10:41:57;;;;;;;7.15;3.25;;;11.30;99.90;;;;;;4992153;28;20116;-63
2021/04/10 10:44:23;;;;;;;7.85;4.32;;;11.40;99.90;;;;;;4990622;28;20029;-63
2021/04/10 10:47:04;;;;;;;7.70;2.90;;;11.20;99.90;;;;;;4991474;28;20029;-66
2021/04/10 10:49:31;;;;;;;3.25;2.33;;;11.20;99.90;;;;;;5007958;28;20070;-64
2021/04/10 10:51:57;;;;;;;5.28;3.00;;;11.10;99.90;;;;;;5008694;28;20049;-63
2021/04/10 10:54:34;;;;;;;4.15;2.67;;;11.10;99.90;;;;;;5009630;28;20138;-64
2021/04/10 10:57:15;;;;;;;4.32;2.63;;;11.10;99.90;;;;;;4991255;28;20101;-62
2021/04/10 10:59:42;;;;;;;8.50;2.95;;;11.00;99.90;;;;;;5007969;28;20086;-64
2021/04/10 11:02:09;;;;;;;11.70;3.08;;;11.00;99.90;;;;;;5011078;28;20204;-63
2021/04/10 11:04:36;;;;;;;5.25;2.55;;;11.10;99.90;;;;;;4987103;28;20089;-63
2021/04/10 11:07:05;;;;;;;5.65;3.03;;;11.00;99.90;;;;;;4990423;28;20420;-63
2021/04/10 11:09:34;;;;;;;4.80;2.67;;;10.90;99.90;;;;;;4985972;28;20101;-65
2021/04/10 11:12:05;;;;;;;4.97;2.33;;;11.00;99.90;;;;;;4992003;28;20133;-64
2021/04/10 11:14:33;;;;;;;3.47;1.98;;;11.10;99.90;;;;;;4991639;28;20033;-64
2021/04/10 11:17:01;;;;;;;7.43;2.63;;;11.00;99.90;;;;;;5005392;28;20062;-63
2021/04/10 11:19:37;;;;;;;5.20;3.00;;;11.10;99.90;;;;;;4994888;28;20395;-63
2021/04/10 11:22:06;;;;;;;6.07;2.63;;;11.00;99.90;;;;;;5011250;28;20440;-64
2021/04/10 11:24:40;;;;;;;3.63;2.22;;;11.00;99.90;;;;;;4994783;28;20030;-63
2021/04/10 11:27:17;;;;;;;3.15;2.20;;;11.10;99.90;;;;;;4994200;28;20120;-63
2021/04/10 11:30:09;;;;;;;5.15;2.30;;;10.90;99.90;;;;;;5012596;28;20103;-63
2021/04/10 11:32:42;;;;;;;5.35;2.33;;;10.90;99.90;;;;;;4994697;28;20133;-62
2021/04/10 11:35:16;;;;;;;3.63;1.83;;;10.80;99.90;;;;;;4993622;28;20026;-63
2021/04/10 11:37:45;;;;;;;5.75;2.53;;;10.90;99.90;;;;;;4985214;28;20031;-64
2021/04/10 11:40:21;;;;;;;5.95;2.33;;;10.90;99.90;;;;;;5008082;28;20065;-63
2021/04/10 11:42:48;;;;;;;4.25;2.60;;;10.80;99.90;;;;;;5011485;28;20546;-64
2021/04/10 11:45:47;;;;;;;5.75;2.08;;;10.70;99.90;;;;;;4984643;28;20518;-63
2021/04/10 11:48:18;;;;;;;5.30;2.28;;;10.70;99.90;;;;;;4959081;28;20058;-63
2021/04/10 11:50:57;;;;;;;6.43;2.75;;;10.70;99.90;;;;;;5002830;28;20022;-63
2021/04/10 11:53:27;;;;;;;5.85;2.30;;;10.70;99.90;;;;;;4989667;28;20100;-62
2021/04/10 11:55:56;;;;;;;3.30;2.40;;;10.80;99.90;;;;;;4993611;28;20515;-64
2021/04/10 11:58:36;;;;;;;5.10;2.65;;;10.90;99.90;;;;;;5011485;28;20026;-63
2021/04/10 12:01:12;;;;;;;5.07;2.30;;;11.00;99.90;;;;;;5010869;28;20113;-64
2021/04/10 12:04:07;;;;;;;3.72;2.35;;;10.90;99.90;;;;;;4993713;28;20535;-63
2021/04/10 12:06:40;;;;;;;14.45;3.45;;;11.00;99.90;;;;;;5002136;28;20057;-64
2021/04/10 12:09:14;;;;;;;5.32;1.52;;;11.40;99.90;;;;;;4993177;28;20048;-65
2021/04/10 12:11:42;;;;;;;6.28;1.98;;;12.00;99.90;;;;;;5011116;28;20428;-64
2021/04/10 12:14:13;;;;;;;3.17;1.77;;;12.40;99.90;;;;;;4991109;28;20033;-63
2021/04/10 12:16:39;;;;;;;3.97;2.30;;;12.20;99.90;;;;;;4993663;28;20030;-63
2021/04/10 12:19:06;;;;;;;4.50;2.70;;;11.90;99.90;;;;;;4992199;28;20370;-64
2021/04/10 12:21:32;;;;;;;7.00;2.30;;;11.60;99.90;;;;;;5003527;28;20569;-65
2021/04/10 12:23:59;;;;;;;5.15;2.15;;;11.10;99.90;;;;;;4999265;28;20046;-65
2021/04/10 12:26:25;;;;;;;3.35;1.83;;;11.90;99.90;;;;;;4999397;28;20097;-51
2021/04/10 12:28:51;;;;;;;6.93;2.28;;;12.10;99.90;;;;;;4990690;28;20472;-53
2021/04/10 12:31:17;;;;;;;4.05;2.53;;;14.10;99.90;;;;;;4972787;28;20037;-52
2021/04/10 12:33:44;;;;;;;4.50;1.45;;;14.80;99.90;;;;;;4980798;28;20022;-53
2021/04/10 12:36:10;;;;;;;7.65;1.95;;;15.30;99.90;;;;;;5000069;28;20038;-51
2021/04/10 12:38:36;;;;;;;6.30;1.98;;;15.50;99.90;;;;;;4998680;28;20117;-52
2021/04/10 12:41:03;;;;;;;6.90;1.70;;;15.80;99.90;;;;;;4998459;28;20044;-52
2021/04/10 12:43:30;;;;;;;5.70;1.58;;;16.10;99.90;;;;;;4982513;28;20101;-57
2021/04/10 12:45:55;;;;;;;6.45;1.95;;;15.90;99.90;;;;;;4978860;28;20391;-59
2021/04/10 12:48:21;;;;;;;6.78;1.45;;;16.10;99.90;;;;;;4990281;28;20081;-53
2021/04/10 12:50:47;;;;;;;2.65;2.03;;;16.40;99.90;;;;;;4989982;28;20030;-51